sensor_id;sensor_type;location;lat;lon;timestamp;P1;durP1;ratioP1;P2;durP2;ratioP2
16193;SDS011;8204;53.582;10.080;2022-10-31T00:01:38;29.93;;;27.10;;
16193;SDS011;8204;53.582;10.080;2022-10-31T00:04:08;31.30;;;27.27;;
16193;SDS011;8204;53.582;10.080;2022-10-31T00:06:39;31.20;;;27.87;;
16193;SDS011;8204;53.582;10.080;2022-10-31T00:09:09;29.50;;;26.50;;
16193;SDS011;8204;53.582;10.080;2022-10-31T00:11:38;27.03;;;24.50;;
16193;SDS011;8204;53.582;10.080;2022-10-31T00:14:07;28.83;;;25.97;;
16193;SDS011;8204;53.582;10.080;2022-10-31T00:16:36;27.90;;;23.00;;
16193;SDS011;8204;53.582;10.080;2022-10-31T00:19:06;27.63;;;25.00;;
16193;SDS011;8204;53.582;10.080;2022-10-31T00:21:38;25.57;;;23.40;;
16193;SDS011;8204;53.582;10.080;2022-10-31T00:24:07;27.10;;;24.73;;
16193;SDS011;8204;53.582;10.080;2022-10-31T00:26:36;24.60;;;22.30;;
16193;SDS011;8204;53.582;10.080;2022-10-31T00:29:05;25.27;;;22.77;;
16193;SDS011;8204;53.582;10.080;2022-10-31T00:31:33;24.83;;;22.33;;
16193;SDS011;8204;53.582;10.080;2022-10-31T00:34:02;23.47;;;21.30;;
16193;SDS011;8204;53.582;10.080;2022-10-31T00:36:31;24.50;;;21.93;;
16193;SDS011;8204;53.582;10.080;2022-10-31T00:39:02;22.70;;;20.77;;
16193;SDS011;8204;53.582;10.080;2022-10-31T00:41:31;22.00;;;20.10;;
16193;SDS011;8204;53.582;10.080;2022-10-31T00:44:00;23.00;;;20.90;;
16193;SDS011;8204;53.582;10.080;2022-10-31T00:46:29;23.87;;;21.87;;
16193;SDS011;8204;53.582;10.080;2022-10-31T00:48:57;24.00;;;21.80;;
16193;SDS011;8204;53.582;10.080;2022-10-31T00:51:27;24.37;;;21.80;;
16193;SDS011;8204;53.582;10.080;2022-10-31T00:53:56;22.60;;;20.70;;
16193;SDS011;8204;53.582;10.080;2022-10-31T00:56:28;22.83;;;20.63;;
16193;SDS011;8204;53.582;10.080;2022-10-31T00:58:56;23.47;;;21.00;;
16193;SDS011;8204;53.582;10.080;2022-10-31T01:01:26;21.63;;;19.53;;
16193;SDS011;8204;53.582;10.080;2022-10-31T01:03:55;22.63;;;20.53;;
16193;SDS011;8204;53.582;10.080;2022-10-31T01:06:23;23.30;;;20.90;;
16193;SDS011;8204;53.582;10.080;2022-10-31T01:08:52;21.70;;;19.90;;
16193;SDS011;8204;53.582;10.080;2022-10-31T01:11:21;23.13;;;20.73;;
16193;SDS011;8204;53.582;10.080;2022-10-31T01:13:55;24.00;;;21.57;;
16193;SDS011;8204;53.582;10.080;2022-10-31T01:16:25;23.17;;;21.10;;
16193;SDS011;8204;53.582;10.080;2022-10-31T01:18:55;21.20;;;19.47;;
16193;SDS011;8204;53.582;10.080;2022-10-31T01:21:24;22.03;;;19.77;;
16193;SDS011;8204;53.582;10.080;2022-10-31T01:23:54;20.97;;;19.17;;
16193;SDS011;8204;53.582;10.080;2022-10-31T01:26:24;21.07;;;19.13;;
16193;SDS011;8204;53.582;10.080;2022-10-31T01:28:59;23.77;;;21.57;;
16193;SDS011;8204;53.582;10.080;2022-10-31T01:31:29;21.67;;;19.60;;
16193;SDS011;8204;53.582;10.080;2022-10-31T01:33:59;21.03;;;19.10;;
16193;SDS011;8204;53.582;10.080;2022-10-31T01:36:29;22.97;;;20.27;;
16193;SDS011;8204;53.582;10.080;2022-10-31T01:39:01;23.63;;;21.33;;
16193;SDS011;8204;53.582;10.080;2022-10-31T01:41:32;25.97;;;23.23;;
16193;SDS011;8204;53.582;10.080;2022-10-31T01:47:05;29.87;;;26.20;;
16193;SDS011;8204;53.582;10.080;2022-10-31T01:49:41;30.17;;;27.13;;
16193;SDS011;8204;53.582;10.080;2022-10-31T01:52:16;28.73;;;24.27;;
16193;SDS011;8204;53.582;10.080;2022-10-31T01:54:51;29.73;;;26.83;;
16193;SDS011;8204;53.582;10.080;2022-10-31T01:57:24;31.27;;;28.17;;
16193;SDS011;8204;53.582;10.080;2022-10-31T01:59:55;35.93;;;28.83;;
16193;SDS011;8204;53.582;10.080;2022-10-31T02:02:30;32.10;;;28.80;;
16193;SDS011;8204;53.582;10.080;2022-10-31T02:05:00;33.03;;;29.50;;
16193;SDS011;8204;53.582;10.080;2022-10-31T02:07:32;34.70;;;30.73;;
16193;SDS011;8204;53.582;10.080;2022-10-31T02:10:05;35.57;;;31.77;;
16193;SDS011;8204;53.582;10.080;2022-10-31T02:12:34;32.23;;;27.67;;
16193;SDS011;8204;53.582;10.080;2022-10-31T02:15:05;41.53;;;32.17;;
16193;SDS011;8204;53.582;10.080;2022-10-31T02:17:37;34.10;;;30.43;;
16193;SDS011;8204;53.582;10.080;2022-10-31T02:20:10;33.20;;;29.70;;
16193;SDS011;8204;53.582;10.080;2022-10-31T02:22:49;38.50;;;29.07;;
16193;SDS011;8204;53.582;10.080;2022-10-31T02:25:41;32.93;;;29.40;;
16193;SDS011;8204;53.582;10.080;2022-10-31T02:28:25;34.27;;;30.63;;
16193;SDS011;8204;53.582;10.080;2022-10-31T02:31:16;34.17;;;29.00;;
16193;SDS011;8204;53.582;10.080;2022-10-31T02:33:55;33.20;;;29.23;;
16193;SDS011;8204;53.582;10.080;2022-10-31T02:36:27;36.33;;;29.93;;
16193;SDS011;8204;53.582;10.080;2022-10-31T02:39:02;32.93;;;29.43;;
16193;SDS011;8204;53.582;10.080;2022-10-31T02:41:48;35.97;;;30.43;;
16193;SDS011;8204;53.582;10.080;2022-10-31T02:44:25;30.77;;;27.53;;
16193;SDS011;8204;53.582;10.080;2022-10-31T02:47:04;36.70;;;28.90;;
16193;SDS011;8204;53.582;10.080;2022-10-31T02:49:38;36.17;;;29.60;;
16193;SDS011;8204;53.582;10.080;2022-10-31T02:52:13;30.90;;;26.93;;
16193;SDS011;8204;53.582;10.080;2022-10-31T02:54:45;33.50;;;29.97;;
16193;SDS011;8204;53.582;10.080;2022-10-31T02:57:16;31.50;;;28.40;;
16193;SDS011;8204;53.582;10.080;2022-10-31T02:59:49;40.03;;;30.47;;
16193;SDS011;8204;53.582;10.080;2022-10-31T03:02:33;34.60;;;28.17;;
16193;SDS011;8204;53.582;10.080;2022-10-31T03:05:19;31.97;;;28.57;;
16193;SDS011;8204;53.582;10.080;2022-10-31T03:08:04;33.90;;;28.93;;
16193;SDS011;8204;53.582;10.080;2022-10-31T03:10:41;36.27;;;27.60;;
16193;SDS011;8204;53.582;10.080;2022-10-31T03:13:17;31.57;;;28.57;;
16193;SDS011;8204;53.582;10.080;2022-10-31T03:15:50;31.97;;;28.60;;
16193;SDS011;8204;53.582;10.080;2022-10-31T03:18:25;32.30;;;28.60;;
16193;SDS011;8204;53.582;10.080;2022-10-31T03:20:58;30.93;;;27.83;;
16193;SDS011;8204;53.582;10.080;2022-10-31T03:23:32;33.83;;;29.87;;
16193;SDS011;8204;53.582;10.080;2022-10-31T03:26:05;31.63;;;28.33;;
16193;SDS011;8204;53.582;10.080;2022-10-31T03:28:37;32.63;;;28.77;;
16193;SDS011;8204;53.582;10.080;2022-10-31T03:31:10;32.67;;;27.43;;
16193;SDS011;8204;53.582;10.080;2022-10-31T03:33:47;35.43;;;29.20;;
16193;SDS011;8204;53.582;10.080;2022-10-31T03:36:18;33.40;;;28.60;;
16193;SDS011;8204;53.582;10.080;2022-10-31T03:38:48;34.27;;;28.07;;
16193;SDS011;8204;53.582;10.080;2022-10-31T03:41:18;30.33;;;26.97;;
16193;SDS011;8204;53.582;10.080;2022-10-31T03:43:52;33.63;;;27.47;;
16193;SDS011;8204;53.582;10.080;2022-10-31T03:46:23;31.73;;;27.80;;
16193;SDS011;8204;53.582;10.080;2022-10-31T03:48:55;31.83;;;27.37;;
16193;SDS011;8204;53.582;10.080;2022-10-31T03:51:26;31.00;;;27.70;;
16193;SDS011;8204;53.582;10.080;2022-10-31T03:54:04;30.50;;;27.33;;
16193;SDS011;8204;53.582;10.080;2022-10-31T03:56:40;29.43;;;26.33;;
16193;SDS011;8204;53.582;10.080;2022-10-31T03:59:14;35.93;;;29.30;;
16193;SDS011;8204;53.582;10.080;2022-10-31T04:01:47;32.73;;;29.30;;
16193;SDS011;8204;53.582;10.080;2022-10-31T04:04:21;36.97;;;29.73;;
16193;SDS011;8204;53.582;10.080;2022-10-31T04:06:51;33.07;;;27.90;;
16193;SDS011;8204;53.582;10.080;2022-10-31T04:09:21;32.10;;;26.97;;
16193;SDS011;8204;53.582;10.080;2022-10-31T04:11:52;35.63;;;29.60;;
16193;SDS011;8204;53.582;10.080;2022-10-31T04:14:23;31.87;;;28.73;;
16193;SDS011;8204;53.582;10.080;2022-10-31T04:16:53;30.60;;;27.27;;
16193;SDS011;8204;53.582;10.080;2022-10-31T04:19:25;33.03;;;29.20;;
16193;SDS011;8204;53.582;10.080;2022-10-31T04:21:54;32.73;;;28.47;;
16193;SDS011;8204;53.582;10.080;2022-10-31T04:24:22;32.77;;;29.20;;
16193;SDS011;8204;53.582;10.080;2022-10-31T04:26:51;32.17;;;28.70;;
16193;SDS011;8204;53.582;10.080;2022-10-31T04:29:20;36.73;;;28.90;;
16193;SDS011;8204;53.582;10.080;2022-10-31T04:31:49;38.20;;;31.60;;
16193;SDS011;8204;53.582;10.080;2022-10-31T04:34:17;33.47;;;29.87;;
16193;SDS011;8204;53.582;10.080;2022-10-31T04:36:49;33.83;;;30.30;;
16193;SDS011;8204;53.582;10.080;2022-10-31T04:39:17;31.80;;;28.40;;
16193;SDS011;8204;53.582;10.080;2022-10-31T04:41:46;32.93;;;29.40;;
16193;SDS011;8204;53.582;10.080;2022-10-31T04:44:15;31.60;;;27.77;;
16193;SDS011;8204;53.582;10.080;2022-10-31T04:46:44;32.87;;;29.20;;
16193;SDS011;8204;53.582;10.080;2022-10-31T04:49:13;33.23;;;28.33;;
16193;SDS011;8204;53.582;10.080;2022-10-31T04:51:41;32.07;;;28.77;;
16193;SDS011;8204;53.582;10.080;2022-10-31T04:54:13;35.37;;;29.37;;
16193;SDS011;8204;53.582;10.080;2022-10-31T04:56:42;32.10;;;28.63;;
16193;SDS011;8204;53.582;10.080;2022-10-31T04:59:11;34.63;;;29.80;;
16193;SDS011;8204;53.582;10.080;2022-10-31T05:01:40;35.33;;;28.70;;
16193;SDS011;8204;53.582;10.080;2022-10-31T05:04:09;35.57;;;29.87;;
16193;SDS011;8204;53.582;10.080;2022-10-31T05:06:38;31.10;;;27.67;;
16193;SDS011;8204;53.582;10.080;2022-10-31T05:09:06;34.73;;;30.03;;
16193;SDS011;8204;53.582;10.080;2022-10-31T05:11:38;37.87;;;29.20;;
16193;SDS011;8204;53.582;10.080;2022-10-31T05:14:06;40.93;;;29.73;;
16193;SDS011;8204;53.582;10.080;2022-10-31T05:16:35;43.53;;;32.20;;
16193;SDS011;8204;53.582;10.080;2022-10-31T05:19:05;36.80;;;30.73;;
16193;SDS011;8204;53.582;10.080;2022-10-31T05:21:33;32.53;;;29.03;;
16193;SDS011;8204;53.582;10.080;2022-10-31T05:24:03;33.37;;;29.77;;
16193;SDS011;8204;53.582;10.080;2022-10-31T05:26:33;38.33;;;31.50;;
16193;SDS011;8204;53.582;10.080;2022-10-31T05:29:04;47.90;;;30.77;;
16193;SDS011;8204;53.582;10.080;2022-10-31T05:31:33;35.30;;;30.07;;
16193;SDS011;8204;53.582;10.080;2022-10-31T05:34:02;32.67;;;29.37;;
16193;SDS011;8204;53.582;10.080;2022-10-31T05:36:31;33.83;;;30.13;;
16193;SDS011;8204;53.582;10.080;2022-10-31T05:38:59;31.87;;;28.40;;
16193;SDS011;8204;53.582;10.080;2022-10-31T05:41:28;38.03;;;32.27;;
16193;SDS011;8204;53.582;10.080;2022-10-31T05:43:57;35.70;;;29.07;;
16193;SDS011;8204;53.582;10.080;2022-10-31T05:46:28;36.97;;;31.33;;
16193;SDS011;8204;53.582;10.080;2022-10-31T05:48:57;39.10;;;29.53;;
16193;SDS011;8204;53.582;10.080;2022-10-31T05:51:26;36.00;;;30.60;;
16193;SDS011;8204;53.582;10.080;2022-10-31T05:53:55;35.60;;;30.30;;
16193;SDS011;8204;53.582;10.080;2022-10-31T05:56:24;36.80;;;30.43;;
16193;SDS011;8204;53.582;10.080;2022-10-31T05:58:53;37.37;;;30.73;;
16193;SDS011;8204;53.582;10.080;2022-10-31T06:01:22;32.87;;;29.43;;
16193;SDS011;8204;53.582;10.080;2022-10-31T06:03:53;35.57;;;29.70;;
16193;SDS011;8204;53.582;10.080;2022-10-31T06:06:22;36.37;;;29.17;;
16193;SDS011;8204;53.582;10.080;2022-10-31T06:08:51;34.43;;;29.63;;
16193;SDS011;8204;53.582;10.080;2022-10-31T06:11:19;35.10;;;29.80;;
16193;SDS011;8204;53.582;10.080;2022-10-31T06:13:48;35.30;;;28.10;;
16193;SDS011;8204;53.582;10.080;2022-10-31T06:16:17;36.43;;;29.93;;
16193;SDS011;8204;53.582;10.080;2022-10-31T06:18:46;36.00;;;27.73;;
16193;SDS011;8204;53.582;10.080;2022-10-31T06:21:17;30.33;;;27.03;;
16193;SDS011;8204;53.582;10.080;2022-10-31T06:23:46;35.27;;;28.70;;
16193;SDS011;8204;53.582;10.080;2022-10-31T06:26:15;36.60;;;28.80;;
16193;SDS011;8204;53.582;10.080;2022-10-31T06:28:44;36.70;;;29.93;;
16193;SDS011;8204;53.582;10.080;2022-10-31T06:31:13;40.33;;;29.83;;
16193;SDS011;8204;53.582;10.080;2022-10-31T06:33:41;37.10;;;31.47;;
16193;SDS011;8204;53.582;10.080;2022-10-31T06:36:10;34.40;;;29.97;;
16193;SDS011;8204;53.582;10.080;2022-10-31T06:38:42;35.83;;;30.00;;
16193;SDS011;8204;53.582;10.080;2022-10-31T06:41:10;35.17;;;28.50;;
16193;SDS011;8204;53.582;10.080;2022-10-31T06:43:39;38.17;;;31.13;;
16193;SDS011;8204;53.582;10.080;2022-10-31T06:46:08;40.10;;;29.77;;
16193;SDS011;8204;53.582;10.080;2022-10-31T06:48:37;34.50;;;27.10;;
16193;SDS011;8204;53.582;10.080;2022-10-31T06:51:05;38.03;;;28.37;;
16193;SDS011;8204;53.582;10.080;2022-10-31T06:53:35;33.30;;;26.83;;
16193;SDS011;8204;53.582;10.080;2022-10-31T06:56:06;35.17;;;27.27;;
16193;SDS011;8204;53.582;10.080;2022-10-31T06:58:35;32.33;;;27.03;;
16193;SDS011;8204;53.582;10.080;2022-10-31T07:01:04;36.63;;;28.13;;
16193;SDS011;8204;53.582;10.080;2022-10-31T07:03:33;36.10;;;27.00;;
16193;SDS011;8204;53.582;10.080;2022-10-31T07:06:02;32.83;;;27.07;;
16193;SDS011;8204;53.582;10.080;2022-10-31T07:08:30;42.43;;;28.40;;
16193;SDS011;8204;53.582;10.080;2022-10-31T07:10:59;36.23;;;28.23;;
16193;SDS011;8204;53.582;10.080;2022-10-31T07:13:31;37.77;;;29.17;;
16193;SDS011;8204;53.582;10.080;2022-10-31T07:16:00;43.07;;;28.87;;
16193;SDS011;8204;53.582;10.080;2022-10-31T07:18:32;37.87;;;29.80;;
16193;SDS011;8204;53.582;10.080;2022-10-31T07:21:04;37.37;;;29.47;;
16193;SDS011;8204;53.582;10.080;2022-10-31T07:23:33;44.73;;;30.67;;
16193;SDS011;8204;53.582;10.080;2022-10-31T07:26:02;40.27;;;31.40;;
16193;SDS011;8204;53.582;10.080;2022-10-31T07:28:33;36.97;;;29.57;;
16193;SDS011;8204;53.582;10.080;2022-10-31T07:31:02;33.70;;;29.90;;
16193;SDS011;8204;53.582;10.080;2022-10-31T07:33:31;34.17;;;29.20;;
16193;SDS011;8204;53.582;10.080;2022-10-31T07:36:00;39.10;;;33.13;;
16193;SDS011;8204;53.582;10.080;2022-10-31T07:38:28;40.13;;;30.67;;
16193;SDS011;8204;53.582;10.080;2022-10-31T07:40:57;34.10;;;28.17;;
16193;SDS011;8204;53.582;10.080;2022-10-31T07:43:26;42.40;;;30.27;;
16193;SDS011;8204;53.582;10.080;2022-10-31T07:45:57;37.47;;;28.20;;
16193;SDS011;8204;53.582;10.080;2022-10-31T07:48:26;33.40;;;28.40;;
16193;SDS011;8204;53.582;10.080;2022-10-31T07:50:55;36.33;;;26.27;;
16193;SDS011;8204;53.582;10.080;2022-10-31T07:53:24;37.67;;;28.37;;
16193;SDS011;8204;53.582;10.080;2022-10-31T07:55:53;33.73;;;26.60;;
16193;SDS011;8204;53.582;10.080;2022-10-31T07:58:22;31.47;;;25.50;;
16193;SDS011;8204;53.582;10.080;2022-10-31T08:00:51;30.37;;;25.23;;
16193;SDS011;8204;53.582;10.080;2022-10-31T08:03:22;31.30;;;25.43;;
16193;SDS011;8204;53.582;10.080;2022-10-31T08:05:51;32.83;;;25.57;;
16193;SDS011;8204;53.582;10.080;2022-10-31T08:08:19;26.03;;;23.30;;
16193;SDS011;8204;53.582;10.080;2022-10-31T08:10:49;30.30;;;23.60;;
16193;SDS011;8204;53.582;10.080;2022-10-31T08:13:18;32.13;;;25.17;;
16193;SDS011;8204;53.582;10.080;2022-10-31T08:15:47;32.70;;;25.23;;
16193;SDS011;8204;53.582;10.080;2022-10-31T08:18:17;35.90;;;24.60;;
16193;SDS011;8204;53.582;10.080;2022-10-31T08:20:50;31.40;;;25.47;;
16193;SDS011;8204;53.582;10.080;2022-10-31T08:23:18;33.33;;;27.30;;
16193;SDS011;8204;53.582;10.080;2022-10-31T08:25:47;33.20;;;26.60;;
16193;SDS011;8204;53.582;10.080;2022-10-31T08:28:16;32.77;;;26.67;;
16193;SDS011;8204;53.582;10.080;2022-10-31T08:30:45;34.57;;;27.13;;
16193;SDS011;8204;53.582;10.080;2022-10-31T08:33:14;33.70;;;26.40;;
16193;SDS011;8204;53.582;10.080;2022-10-31T08:35:45;33.67;;;25.87;;
16193;SDS011;8204;53.582;10.080;2022-10-31T08:38:16;32.13;;;27.17;;
16193;SDS011;8204;53.582;10.080;2022-10-31T08:40:47;32.53;;;26.47;;
16193;SDS011;8204;53.582;10.080;2022-10-31T08:43:17;33.10;;;25.27;;
16193;SDS011;8204;53.582;10.080;2022-10-31T08:45:47;33.40;;;24.77;;
16193;SDS011;8204;53.582;10.080;2022-10-31T08:48:20;29.43;;;23.07;;
16193;SDS011;8204;53.582;10.080;2022-10-31T08:50:49;27.57;;;23.47;;
16193;SDS011;8204;53.582;10.080;2022-10-31T08:53:21;25.73;;;22.17;;
16193;SDS011;8204;53.582;10.080;2022-10-31T08:55:49;27.70;;;23.27;;
16193;SDS011;8204;53.582;10.080;2022-10-31T08:58:18;34.23;;;23.17;;
16193;SDS011;8204;53.582;10.080;2022-10-31T09:00:49;28.03;;;22.60;;
16193;SDS011;8204;53.582;10.080;2022-10-31T09:03:21;32.23;;;23.60;;
16193;SDS011;8204;53.582;10.080;2022-10-31T09:05:54;22.77;;;19.17;;
16193;SDS011;8204;53.582;10.080;2022-10-31T09:08:26;26.50;;;22.70;;
16193;SDS011;8204;53.582;10.080;2022-10-31T09:10:58;27.30;;;22.70;;
16193;SDS011;8204;53.582;10.080;2022-10-31T09:13:27;27.00;;;22.50;;
16193;SDS011;8204;53.582;10.080;2022-10-31T09:15:56;25.67;;;20.73;;
16193;SDS011;8204;53.582;10.080;2022-10-31T09:18:25;27.13;;;21.27;;
16193;SDS011;8204;53.582;10.080;2022-10-31T09:20:57;31.27;;;21.67;;
16193;SDS011;8204;53.582;10.080;2022-10-31T09:23:30;25.73;;;21.50;;
16193;SDS011;8204;53.582;10.080;2022-10-31T09:25:59;25.00;;;21.93;;
16193;SDS011;8204;53.582;10.080;2022-10-31T09:28:29;29.63;;;22.77;;
16193;SDS011;8204;53.582;10.080;2022-10-31T09:30:58;26.90;;;22.50;;
16193;SDS011;8204;53.582;10.080;2022-10-31T09:33:27;31.40;;;24.93;;
16193;SDS011;8204;53.582;10.080;2022-10-31T09:35:57;30.90;;;24.77;;
16193;SDS011;8204;53.582;10.080;2022-10-31T09:38:26;28.70;;;23.43;;
16193;SDS011;8204;53.582;10.080;2022-10-31T09:41:01;25.87;;;22.10;;
16193;SDS011;8204;53.582;10.080;2022-10-31T09:43:37;27.63;;;21.20;;
16193;SDS011;8204;53.582;10.080;2022-10-31T09:46:14;29.23;;;21.40;;
16193;SDS011;8204;53.582;10.080;2022-10-31T09:48:52;23.80;;;20.53;;
16193;SDS011;8204;53.582;10.080;2022-10-31T09:51:36;26.83;;;20.77;;
16193;SDS011;8204;53.582;10.080;2022-10-31T09:54:10;24.20;;;20.77;;
16193;SDS011;8204;53.582;10.080;2022-10-31T09:56:46;24.33;;;21.00;;
16193;SDS011;8204;53.582;10.080;2022-10-31T09:59:16;27.00;;;20.23;;
16193;SDS011;8204;53.582;10.080;2022-10-31T10:01:54;22.77;;;19.57;;
16193;SDS011;8204;53.582;10.080;2022-10-31T10:04:30;21.83;;;19.33;;
16193;SDS011;8204;53.582;10.080;2022-10-31T10:07:08;19.10;;;17.10;;
16193;SDS011;8204;53.582;10.080;2022-10-31T10:09:45;21.67;;;19.10;;
16193;SDS011;8204;53.582;10.080;2022-10-31T10:12:19;23.53;;;21.10;;
16193;SDS011;8204;53.582;10.080;2022-10-31T10:15:01;19.33;;;17.33;;
16193;SDS011;8204;53.582;10.080;2022-10-31T10:17:48;23.10;;;20.67;;
16193;SDS011;8204;53.582;10.080;2022-10-31T10:20:28;21.60;;;18.17;;
16193;SDS011;8204;53.582;10.080;2022-10-31T10:26:03;22.37;;;18.50;;
16193;SDS011;8204;53.582;10.080;2022-10-31T10:28:41;21.20;;;19.00;;
16193;SDS011;8204;53.582;10.080;2022-10-31T10:31:13;24.90;;;18.10;;
16193;SDS011;8204;53.582;10.080;2022-10-31T10:33:45;20.13;;;16.30;;
16193;SDS011;8204;53.582;10.080;2022-10-31T10:36:25;19.03;;;17.03;;
16193;SDS011;8204;53.582;10.080;2022-10-31T10:39:00;21.17;;;18.80;;
16193;SDS011;8204;53.582;10.080;2022-10-31T10:41:33;21.93;;;19.60;;
16193;SDS011;8204;53.582;10.080;2022-10-31T10:44:04;19.33;;;16.77;;
16193;SDS011;8204;53.582;10.080;2022-10-31T10:46:40;21.73;;;17.93;;
16193;SDS011;8204;53.582;10.080;2022-10-31T10:49:23;24.40;;;17.80;;
16193;SDS011;8204;53.582;10.080;2022-10-31T10:51:57;20.77;;;18.13;;
16193;SDS011;8204;53.582;10.080;2022-10-31T10:54:38;21.73;;;18.43;;
16193;SDS011;8204;53.582;10.080;2022-10-31T10:57:15;22.83;;;19.13;;
16193;SDS011;8204;53.582;10.080;2022-10-31T10:59:57;21.03;;;18.10;;
16193;SDS011;8204;53.582;10.080;2022-10-31T11:02:30;21.83;;;18.87;;
16193;SDS011;8204;53.582;10.080;2022-10-31T11:05:00;18.37;;;16.43;;
16193;SDS011;8204;53.582;10.080;2022-10-31T11:07:37;22.53;;;19.03;;
16193;SDS011;8204;53.582;10.080;2022-10-31T11:10:11;19.07;;;17.00;;
16193;SDS011;8204;53.582;10.080;2022-10-31T11:12:42;19.87;;;17.77;;
16193;SDS011;8204;53.582;10.080;2022-10-31T11:15:20;25.27;;;20.30;;
16193;SDS011;8204;53.582;10.080;2022-10-31T11:17:51;23.40;;;19.87;;
16193;SDS011;8204;53.582;10.080;2022-10-31T11:20:25;27.33;;;19.93;;
16193;SDS011;8204;53.582;10.080;2022-10-31T11:23:01;22.77;;;19.63;;
16193;SDS011;8204;53.582;10.080;2022-10-31T11:25:32;27.27;;;19.10;;
16193;SDS011;8204;53.582;10.080;2022-10-31T11:28:01;21.80;;;19.57;;
16193;SDS011;8204;53.582;10.080;2022-10-31T11:30:42;23.03;;;19.10;;
16193;SDS011;8204;53.582;10.080;2022-10-31T11:33:17;22.23;;;19.80;;
16193;SDS011;8204;53.582;10.080;2022-10-31T11:35:49;23.53;;;18.43;;
16193;SDS011;8204;53.582;10.080;2022-10-31T11:38:20;21.23;;;17.47;;
16193;SDS011;8204;53.582;10.080;2022-10-31T11:40:53;20.63;;;18.43;;
16193;SDS011;8204;53.582;10.080;2022-10-31T11:43:24;24.30;;;19.27;;
16193;SDS011;8204;53.582;10.080;2022-10-31T11:45:55;32.23;;;25.37;;
16193;SDS011;8204;53.582;10.080;2022-10-31T11:48:24;29.03;;;26.00;;
16193;SDS011;8204;53.582;10.080;2022-10-31T11:50:56;28.73;;;25.17;;
16193;SDS011;8204;53.582;10.080;2022-10-31T11:53:27;29.43;;;26.43;;
16193;SDS011;8204;53.582;10.080;2022-10-31T11:56:00;29.37;;;25.77;;
16193;SDS011;8204;53.582;10.080;2022-10-31T11:58:32;31.47;;;28.10;;
16193;SDS011;8204;53.582;10.080;2022-10-31T12:01:03;31.30;;;27.07;;
16193;SDS011;8204;53.582;10.080;2022-10-31T12:03:38;33.70;;;28.60;;
16193;SDS011;8204;53.582;10.080;2022-10-31T12:06:18;29.93;;;26.70;;
16193;SDS011;8204;53.582;10.080;2022-10-31T12:08:50;30.00;;;26.87;;
16193;SDS011;8204;53.582;10.080;2022-10-31T12:14:23;31.80;;;28.50;;
16193;SDS011;8204;53.582;10.080;2022-10-31T12:17:05;30.17;;;27.17;;
16193;SDS011;8204;53.582;10.080;2022-10-31T12:19:42;30.87;;;27.70;;
16193;SDS011;8204;53.582;10.080;2022-10-31T12:22:17;31.77;;;28.40;;
16193;SDS011;8204;53.582;10.080;2022-10-31T12:25:10;31.33;;;28.10;;
16193;SDS011;8204;53.582;10.080;2022-10-31T12:27:52;32.30;;;28.87;;
16193;SDS011;8204;53.582;10.080;2022-10-31T12:30:41;29.73;;;26.73;;
16193;SDS011;8204;53.582;10.080;2022-10-31T12:33:29;26.97;;;24.17;;
16193;SDS011;8204;53.582;10.080;2022-10-31T12:36:12;30.40;;;27.03;;
16193;SDS011;8204;53.582;10.080;2022-10-31T12:39:01;29.10;;;24.43;;
16193;SDS011;8204;53.582;10.080;2022-10-31T12:41:46;26.37;;;23.50;;
16193;SDS011;8204;53.582;10.080;2022-10-31T12:44:28;27.07;;;22.80;;
16193;SDS011;8204;53.582;10.080;2022-10-31T12:47:30;26.70;;;24.00;;
16193;SDS011;8204;53.582;10.080;2022-10-31T12:50:20;27.73;;;24.53;;
16193;SDS011;8204;53.582;10.080;2022-10-31T12:53:00;30.90;;;24.37;;
16193;SDS011;8204;53.582;10.080;2022-10-31T12:55:46;24.07;;;21.60;;
16193;SDS011;8204;53.582;10.080;2022-10-31T12:58:24;25.03;;;22.53;;
16193;SDS011;8204;53.582;10.080;2022-10-31T13:01:01;26.37;;;23.53;;
16193;SDS011;8204;53.582;10.080;2022-10-31T13:03:38;24.37;;;20.83;;
16193;SDS011;8204;53.582;10.080;2022-10-31T13:06:18;25.73;;;21.43;;
16193;SDS011;8204;53.582;10.080;2022-10-31T13:08:51;25.23;;;21.30;;
16193;SDS011;8204;53.582;10.080;2022-10-31T13:11:23;25.47;;;22.50;;
16193;SDS011;8204;53.582;10.080;2022-10-31T13:13:57;29.30;;;22.70;;
16193;SDS011;8204;53.582;10.080;2022-10-31T13:16:33;24.43;;;21.93;;
16193;SDS011;8204;53.582;10.080;2022-10-31T13:19:08;23.77;;;21.33;;
16193;SDS011;8204;53.582;10.080;2022-10-31T13:21:45;25.40;;;22.63;;
16193;SDS011;8204;53.582;10.080;2022-10-31T13:24:25;23.73;;;21.30;;
16193;SDS011;8204;53.582;10.080;2022-10-31T13:26:59;24.40;;;21.77;;
16193;SDS011;8204;53.582;10.080;2022-10-31T13:29:32;24.33;;;21.03;;
16193;SDS011;8204;53.582;10.080;2022-10-31T13:32:05;25.33;;;21.10;;
16193;SDS011;8204;53.582;10.080;2022-10-31T13:34:36;23.53;;;21.17;;
16193;SDS011;8204;53.582;10.080;2022-10-31T13:37:24;22.70;;;20.33;;
16193;SDS011;8204;53.582;10.080;2022-10-31T13:40:05;22.20;;;19.93;;
16193;SDS011;8204;53.582;10.080;2022-10-31T13:42:47;19.30;;;17.33;;
16193;SDS011;8204;53.582;10.080;2022-10-31T13:45:24;24.37;;;21.80;;
16193;SDS011;8204;53.582;10.080;2022-10-31T13:47:57;30.67;;;22.13;;
16193;SDS011;8204;53.582;10.080;2022-10-31T13:50:28;26.33;;;23.67;;
16193;SDS011;8204;53.582;10.080;2022-10-31T13:53:18;20.80;;;18.87;;
16193;SDS011;8204;53.582;10.080;2022-10-31T13:55:49;24.80;;;22.30;;
16193;SDS011;8204;53.582;10.080;2022-10-31T13:58:20;21.17;;;19.03;;
16193;SDS011;8204;53.582;10.080;2022-10-31T14:01:03;22.20;;;19.90;;
16193;SDS011;8204;53.582;10.080;2022-10-31T14:03:42;21.90;;;19.47;;
16193;SDS011;8204;53.582;10.080;2022-10-31T14:06:13;20.90;;;18.70;;
16193;SDS011;8204;53.582;10.080;2022-10-31T14:08:50;19.80;;;17.77;;
16193;SDS011;8204;53.582;10.080;2022-10-31T14:11:21;19.63;;;16.77;;
16193;SDS011;8204;53.582;10.080;2022-10-31T14:13:53;19.17;;;17.37;;
16193;SDS011;8204;53.582;10.080;2022-10-31T14:16:25;19.37;;;17.43;;
16193;SDS011;8204;53.582;10.080;2022-10-31T14:18:57;19.13;;;17.23;;
16193;SDS011;8204;53.582;10.080;2022-10-31T14:21:29;21.50;;;19.23;;
16193;SDS011;8204;53.582;10.080;2022-10-31T14:24:02;19.77;;;17.80;;
16193;SDS011;8204;53.582;10.080;2022-10-31T14:26:51;20.03;;;18.07;;
16193;SDS011;8204;53.582;10.080;2022-10-31T14:29:21;20.70;;;18.47;;
16193;SDS011;8204;53.582;10.080;2022-10-31T14:31:57;20.30;;;18.03;;
16193;SDS011;8204;53.582;10.080;2022-10-31T14:34:33;21.93;;;16.87;;
16193;SDS011;8204;53.582;10.080;2022-10-31T14:37:12;20.27;;;17.67;;
16193;SDS011;8204;53.582;10.080;2022-10-31T14:39:55;16.93;;;15.23;;
16193;SDS011;8204;53.582;10.080;2022-10-31T14:42:36;17.50;;;14.33;;
16193;SDS011;8204;53.582;10.080;2022-10-31T14:45:20;18.00;;;15.93;;
16193;SDS011;8204;53.582;10.080;2022-10-31T14:48:11;19.03;;;17.10;;
16193;SDS011;8204;53.582;10.080;2022-10-31T14:50:53;18.30;;;16.47;;
16193;SDS011;8204;53.582;10.080;2022-10-31T14:53:24;19.03;;;17.30;;
16193;SDS011;8204;53.582;10.080;2022-10-31T14:55:58;19.33;;;17.07;;
16193;SDS011;8204;53.582;10.080;2022-10-31T14:58:35;20.50;;;18.23;;
16193;SDS011;8204;53.582;10.080;2022-10-31T15:01:06;19.27;;;17.17;;
16193;SDS011;8204;53.582;10.080;2022-10-31T15:03:36;19.40;;;17.63;;